LFBILFBU

Guest
Details From LFBI - Poitiers Biard
To LFBU - Angouleme Brie Champniers
Flight Number -
Tags generated
Created
Modified
Stats Distance 52 nm / 96 km
Max Altitude 200 ft / 61 m
Waypoints 3
Social Downloads 0
Likes 0
Share VATSIM

Download

Looking for another format? Having issues loading an existing format? Contact us
Advertisement - Login to hide

Notes

Basic altitude profile: - Ascent Rate: 2500ft/min - Ascent Speed: 250kts - Cruise Altitude: 35000ft - Cruise Speed: 420kts - Descent Rate: 1500ft/min - Descent Speed: 250kts Options: - Use NATs: yes - Use PACOTS: yes - Use low airways: yes - Use high airways: yes

Route

LFBI POI LFBU

ID Type Via Altitude Latitude Longitude Leg Dist Tot Dist Heading (true) Name
O LFBI APT - 0 ft / 0 m 46.58874˚ 0.30794˚ - 0 nm - Poitiers Biard
POI VOR - 200 ft / 61 m 46.58100˚ 0.29819˚ 0 nm 0 nm 221° / 221° POITIERS BIARD VOR
O LFBU APT - 0 ft / 0 m 45.72951˚ 0.21867˚ 51 nm 51 nm 184° / 184° Angouleme Brie Champniers

Altitude Profile

Advertisement - Login to hide

LFBI

Details ICAO LFBI (PIS)
Name Poitiers Biard
Region France
Timezone Europe/Paris (UTC+1.0)
Stats Elevation 423 ft / 129 m (AMSL)
Location 46.588739° 0.307939°
Runways 1
Magnetic Variation 0.123° E

METAR

LFBI 130130Z AUTO 18010KT 9999 FEW039 BKN076 04/03 Q1017

Decode

TAF

Not found

Departure Runways

ID Width Length Bearing (true) Bearing (mag) Surface Threshold Offset Overrun Length
03 148 ft / 45 m 7,725 ft / 2,355 m 30.51° 30.39° Asphalt 0 ft / 0 m 164 ft / 50 m
21 148 ft / 45 m 7,725 ft / 2,355 m 210.53° 210.41° Asphalt 0 ft / 0 m 0 ft / 0 m

LFBU

Details ICAO LFBU (ANG)
Name Angouleme Brie Champniers
Region France
Timezone Europe/Paris (UTC+1.0)
Stats Elevation 436 ft / 133 m (AMSL)
Location 45.729515° 0.218672°
Runways 1
Magnetic Variation 0.152° E

METAR

LFBU 130130Z AUTO 16007KT CAVOK 03/03 Q1019

Decode

TAF

Not found

Destination Runways

ID Width Length Bearing (true) Bearing (mag) Surface Threshold Offset Overrun Length
10 148 ft / 45 m 5,923 ft / 1,805 m 96.94° 96.79° Asphalt 0 ft / 0 m 1,805 ft / 550 m
28 148 ft / 45 m 5,923 ft / 1,805 m 276.96° 276.81° Asphalt 0 ft / 0 m 1,375 ft / 419 m

Approach Navaids

Runway Type Ident Frequency Range Bearing (true) Bearing (mag) Slope Elevation
28 Localiser AM 109.35 MHz 18 nm / 33 km 276.94° 276.79° - 427 ft / 130 m (AMSL)
28 Glidescope AM 109.35 MHz 10 nm / 19 km 276.95° 276.80° 3.00° 420 ft / 128 m (AMSL)
28 DME AM 109.35 MHz 18 nm / 33 km - - - 420 ft / 128 m (AMSL)